San Esteban, Argentina
Current Conditions -  °F | °C
As of 12:00 AM on Friday 28 Nov 2014 (Local Time) from SACO Reporting Station
Clear Clear  
Wind Chill: 63°   Ceiling: Unl
Heat Index: 63°   Visibility: 6mi
Dew Point: 52°   Wind: 5mph
Humidity: 68%   Direction: 360°N
Pressure: 30"   Gusts: NA
Location:  30.92°S, 64.55°W
Report Text: SACO 280300Z 36004KT CAVOK 17/11 Q1016
Loading
Personal Weather Stations






























Interactive Weather Map New forecast layout! Learn more

10-Day Weather Forecast

Advertisements
Track Severe Weather on mobile